createdAt,value
2023-10-11T00:01:55.098Z,100.00
2023-10-11T00:04:28.560Z,100.00
2023-10-11T00:06:59.105Z,100.00
2023-10-11T00:09:36.487Z,100.00
2023-10-11T00:12:13.383Z,100.00
2023-10-11T00:14:44.383Z,100.00
2023-10-11T00:17:16.178Z,100.00
2023-10-11T00:19:47.906Z,100.00
2023-10-11T00:22:19.175Z,100.00
2023-10-11T00:24:49.677Z,100.00
2023-10-11T00:27:23.146Z,100.00
2023-10-11T00:29:54.042Z,100.00
2023-10-11T00:32:24.742Z,100.00
2023-10-11T00:34:55.449Z,100.00
2023-10-11T00:37:28.458Z,100.00
2023-10-11T00:39:59.102Z,100.00
2023-10-11T00:42:33.406Z,100.00
2023-10-11T00:45:04.171Z,100.00
2023-10-11T00:47:41.897Z,100.00
2023-10-11T00:50:15.957Z,100.00
2023-10-11T00:52:47.211Z,100.00
2023-10-11T00:55:20.637Z,100.00
2023-10-11T00:57:54.972Z,100.00
2023-10-11T01:00:26.502Z,100.00
2023-10-11T01:02:57.849Z,100.00
2023-10-11T01:05:28.572Z,100.00
2023-10-11T01:07:59.645Z,100.00
2023-10-11T01:10:30.847Z,100.00
2023-10-11T01:13:04.124Z,100.00
2023-10-11T01:15:34.690Z,100.00
2023-10-11T01:18:05.296Z,100.00
2023-10-11T01:20:42.970Z,100.00
2023-10-11T01:23:13.601Z,100.00
2023-10-11T01:25:44.945Z,100.00
2023-10-11T01:28:15.627Z,100.00
2023-10-11T01:30:48.757Z,100.00
2023-10-11T01:33:20.212Z,100.00
2023-10-11T01:35:53.941Z,100.00
2023-10-11T01:38:25.634Z,100.00
2023-10-11T01:40:59.416Z,100.00
2023-10-11T01:43:30.911Z,100.00
2023-10-11T01:46:01.507Z,100.00
2023-10-11T01:48:32.496Z,100.00
2023-10-11T01:51:10.730Z,100.00
2023-10-11T01:53:42.064Z,100.00
2023-10-11T01:56:14.856Z,100.00
2023-10-11T01:58:45.970Z,100.00
2023-10-11T02:01:27.992Z,100.00
2023-10-11T02:04:04.498Z,100.00
2023-10-11T02:06:39.659Z,100.00
2023-10-11T02:09:10.976Z,100.00
2023-10-11T02:11:43.288Z,100.00
2023-10-11T02:14:15.371Z,100.00
2023-10-11T02:16:46.093Z,100.00
2023-10-11T02:19:17.435Z,100.00
2023-10-11T02:21:55.730Z,100.00
2023-10-11T02:24:28.356Z,100.00
2023-10-11T02:26:59.892Z,100.00
2023-10-11T02:29:30.740Z,100.00
2023-10-11T02:32:04.931Z,100.00
2023-10-11T02:34:37.054Z,100.00
2023-10-11T02:37:12.539Z,100.00
2023-10-11T02:39:47.088Z,100.00
2023-10-11T02:42:20.962Z,100.00
2023-10-11T02:44:51.900Z,100.00
2023-10-11T02:47:24.617Z,100.00
2023-10-11T02:49:55.948Z,100.00
2023-10-11T02:52:37.223Z,100.00
2023-10-11T02:55:18.009Z,100.00
2023-10-11T02:57:49.767Z,100.00
2023-10-11T03:00:26.619Z,100.00
2023-10-11T03:02:58.965Z,100.00
2023-10-11T03:05:31.128Z,100.00
2023-10-11T03:08:17.070Z,100.00
2023-10-11T03:10:54.548Z,100.00
2023-10-11T03:13:30.776Z,100.00
2023-10-11T03:16:03.023Z,100.00
2023-10-11T03:18:41.079Z,100.00
2023-10-11T03:21:20.834Z,100.00
2023-10-11T03:23:55.990Z,100.00
2023-10-11T03:26:32.815Z,100.00
2023-10-11T03:29:05.284Z,100.00
2023-10-11T03:31:41.675Z,100.00
2023-10-11T03:34:16.215Z,100.00
2023-10-11T03:36:51.093Z,100.00
2023-10-11T03:39:40.974Z,100.00
2023-10-11T03:42:16.153Z,100.00
2023-10-11T03:44:49.158Z,100.00
2023-10-11T03:47:25.840Z,100.00
2023-10-11T03:49:56.492Z,100.00
2023-10-11T03:52:32.056Z,100.00
2023-10-11T03:55:10.961Z,100.00
2023-10-11T03:57:43.066Z,100.00
2023-10-11T04:00:27.372Z,100.00
2023-10-11T04:02:59.125Z,100.00
2023-10-11T04:05:36.415Z,100.00
2023-10-11T04:08:12.230Z,100.00
2023-10-11T04:10:50.968Z,100.00
2023-10-11T04:13:26.660Z,100.00
2023-10-11T04:16:00.880Z,100.00
2023-10-11T04:18:39.260Z,100.00
2023-10-11T04:21:27.600Z,100.00
2023-10-11T04:23:59.897Z,100.00
2023-10-11T04:26:38.112Z,100.00
2023-10-11T04:29:18.685Z,100.00
2023-10-11T04:32:11.216Z,100.00
2023-10-11T04:34:49.689Z,100.00
2023-10-11T04:37:29.335Z,100.00
2023-10-11T04:40:17.979Z,100.00
2023-10-11T04:43:06.061Z,100.00
2023-10-11T04:45:55.896Z,100.00
2023-10-11T04:48:37.954Z,100.00
2023-10-11T04:51:23.903Z,100.00
2023-10-11T04:54:00.931Z,100.00
2023-10-11T04:56:45.639Z,100.00
2023-10-11T04:59:27.394Z,100.00
2023-10-11T05:02:10.105Z,100.00
2023-10-11T05:04:45.973Z,100.00
2023-10-11T05:07:21.238Z,100.00
2023-10-11T05:09:58.395Z,100.00
2023-10-11T05:12:29.160Z,100.00
2023-10-11T05:15:08.679Z,100.00
2023-10-11T05:17:52.341Z,100.00
2023-10-11T05:20:46.431Z,100.00
2023-10-11T05:23:18.186Z,100.00
2023-10-11T05:26:00.640Z,100.00
2023-10-11T05:28:29.003Z,100.00
2023-10-11T05:31:20.646Z,100.00
2023-10-11T05:34:03.880Z,100.00
2023-10-11T05:36:58.917Z,100.00
2023-10-11T05:39:41.901Z,100.00
2023-10-11T05:42:24.888Z,100.00
2023-10-11T05:45:07.919Z,100.00
2023-10-11T05:47:53.595Z,100.00
2023-10-11T05:50:36.639Z,100.00
2023-10-11T05:53:07.499Z,100.00
2023-10-11T05:55:38.482Z,100.00
2023-10-11T05:58:09.702Z,100.00
2023-10-11T06:00:40.843Z,100.00
2023-10-11T06:03:16.497Z,100.00
2023-10-11T06:05:47.293Z,100.00
2023-10-11T06:08:19.616Z,100.00
2023-10-11T06:10:52.988Z,100.00
2023-10-11T06:13:24.009Z,100.00
2023-10-11T06:16:04.240Z,100.00
2023-10-11T06:18:40.937Z,100.00
2023-10-11T06:21:20.517Z,100.00
2023-10-11T06:23:53.175Z,100.00
2023-10-11T06:26:53.458Z,100.00
2023-10-11T06:29:24.508Z,100.00
2023-10-11T06:32:09.325Z,100.00
2023-10-11T06:34:49.159Z,100.00
2023-10-11T06:37:25.732Z,100.00
2023-10-11T06:40:15.239Z,100.00
2023-10-11T06:42:44.090Z,100.00
2023-10-11T06:45:21.664Z,100.00
2023-10-11T06:47:52.515Z,100.00
2023-10-11T06:50:25.978Z,100.00
2023-10-11T06:52:56.771Z,100.00
2023-10-11T06:55:27.352Z,100.00
2023-10-11T06:58:04.031Z,100.00
2023-10-11T07:00:38.752Z,100.00
2023-10-11T07:03:23.696Z,100.00
2023-10-11T07:06:00.855Z,100.00
2023-10-11T07:08:37.861Z,100.00
2023-10-11T07:11:17.754Z,100.00
2023-10-11T07:13:56.663Z,100.00
2023-10-11T07:16:29.071Z,100.00
2023-10-11T07:19:00.815Z,100.00
2023-10-11T07:21:50.118Z,100.00
2023-10-11T07:24:33.344Z,100.00
2023-10-11T07:27:14.143Z,100.00
2023-10-11T07:29:49.562Z,100.00
2023-10-11T07:32:21.540Z,100.00
2023-10-11T07:34:56.417Z,100.00
2023-10-11T07:37:29.968Z,100.00
2023-10-11T07:40:11.132Z,100.00
2023-10-11T07:42:42.151Z,100.00
2023-10-11T07:45:14.793Z,100.00
2023-10-11T07:47:49.569Z,100.00
2023-10-11T07:50:24.221Z,97.82
2023-10-11T07:52:59.343Z,92.60
2023-10-11T07:55:29.945Z,89.50
2023-10-11T07:58:04.164Z,88.71
2023-10-11T08:00:35.178Z,90.87
2023-10-11T08:03:07.184Z,87.30
2023-10-11T08:05:46.587Z,86.33
2023-10-11T08:08:21.493Z,82.88
2023-10-11T08:10:53.967Z,83.42
2023-10-11T08:13:28.059Z,81.77
2023-10-11T08:16:00.609Z,87.30
2023-10-11T08:18:33.645Z,92.26
2023-10-11T08:21:04.724Z,97.25
2023-10-11T08:23:44.355Z,99.83
2023-10-11T08:26:19.221Z,100.00
2023-10-11T08:28:53.330Z,100.00
2023-10-11T08:31:36.581Z,100.00
2023-10-11T08:34:07.616Z,100.00
2023-10-11T08:36:38.455Z,100.00
2023-10-11T08:39:14.741Z,100.00
2023-10-11T08:41:47.719Z,94.83
2023-10-11T08:44:26.606Z,82.38
2023-10-11T08:46:58.070Z,74.56
2023-10-11T08:49:29.071Z,64.76
2023-10-11T08:52:01.660Z,60.48
2023-10-11T08:54:35.679Z,55.19
2023-10-11T08:57:08.037Z,51.84
2023-10-11T08:59:52.794Z,51.05
2023-10-11T09:02:24.479Z,49.73
2023-10-11T09:05:05.608Z,48.81
2023-10-11T09:07:41.319Z,48.12
2023-10-11T09:10:33.972Z,48.18
2023-10-11T09:13:10.262Z,48.47
2023-10-11T09:15:44.588Z,47.58
2023-10-11T09:18:19.211Z,45.91
2023-10-11T09:20:57.402Z,46.58
2023-10-11T09:23:38.784Z,45.42
2023-10-11T09:26:15.315Z,44.73
2023-10-11T09:28:57.852Z,44.35
2023-10-11T09:31:28.632Z,42.01
2023-10-11T09:34:01.403Z,41.46
2023-10-11T09:36:32.810Z,40.93
2023-10-11T09:39:05.146Z,40.66
2023-10-11T09:41:42.660Z,40.87
2023-10-11T09:44:18.437Z,39.55
2023-10-11T09:46:51.201Z,38.87
2023-10-11T09:49:26.980Z,36.94
2023-10-11T09:52:01.198Z,36.92
2023-10-11T09:54:31.857Z,36.79
2023-10-11T09:57:17.414Z,36.43
2023-10-11T10:00:02.076Z,35.38
2023-10-11T10:02:46.205Z,33.72
2023-10-11T10:05:18.372Z,33.38
2023-10-11T10:07:48.768Z,32.96
2023-10-11T10:10:27.443Z,32.56
2023-10-11T10:13:10.957Z,31.57
2023-10-11T10:15:53.971Z,31.08
2023-10-11T10:18:28.700Z,29.78
2023-10-11T10:21:06.508Z,29.44
2023-10-11T10:23:39.597Z,29.15
2023-10-11T10:26:40.392Z,29.94
2023-10-11T10:29:17.154Z,30.72
2023-10-11T10:32:10.256Z,31.57
2023-10-11T10:34:43.624Z,32.66
2023-10-11T10:38:05.221Z,31.61
2023-10-11T10:40:38.719Z,32.08
2023-10-11T10:43:29.357Z,31.97
2023-10-11T10:46:04.401Z,31.20
2023-10-11T10:48:41.111Z,30.77
2023-10-11T10:51:12.922Z,30.79
2023-10-11T10:53:43.474Z,30.27
2023-10-11T10:56:25.475Z,31.54
2023-10-11T10:59:08.819Z,32.72
2023-10-11T11:01:41.924Z,34.04
2023-10-11T11:04:10.392Z,34.58
2023-10-11T11:06:46.077Z,34.16
2023-10-11T11:09:16.785Z,33.02
2023-10-11T11:11:47.915Z,33.08
2023-10-11T11:14:21.099Z,33.25
2023-10-11T11:17:11.411Z,32.30
2023-10-11T11:19:39.195Z,31.65
2023-10-11T11:22:13.506Z,31.60
2023-10-11T11:24:43.142Z,31.18
2023-10-11T11:27:20.175Z,30.86
2023-10-11T11:29:51.863Z,33.44
2023-10-11T11:32:41.453Z,35.50
2023-10-11T11:35:11.833Z,34.51
2023-10-11T11:37:43.533Z,33.67
2023-10-11T11:40:26.112Z,33.71
2023-10-11T11:42:56.835Z,35.90
2023-10-11T11:45:27.713Z,34.92
2023-10-11T11:48:01.874Z,35.60
2023-10-11T11:50:32.963Z,36.92
2023-10-11T11:53:04.146Z,37.00
2023-10-11T11:55:33.329Z,38.39
2023-10-11T11:58:04.117Z,38.54
2023-10-11T12:00:40.723Z,39.01
2023-10-11T12:03:13.856Z,39.30
2023-10-11T12:05:42.493Z,39.60
2023-10-11T12:08:20.229Z,40.03
2023-10-11T12:10:49.150Z,40.03
2023-10-11T12:13:24.628Z,39.58
2023-10-11T12:15:57.217Z,40.65
2023-10-11T12:18:34.678Z,40.70
2023-10-11T12:21:12.839Z,40.41
2023-10-11T12:23:48.361Z,41.16
2023-10-11T12:26:22.236Z,40.64
2023-10-11T12:28:53.225Z,41.11
2023-10-11T12:31:23.562Z,40.22
2023-10-11T12:33:56.604Z,40.19
2023-10-11T12:36:30.105Z,39.87
2023-10-11T12:39:02.659Z,39.26
2023-10-11T12:41:34.005Z,39.28
2023-10-11T12:44:04.675Z,38.84
2023-10-11T12:46:34.897Z,39.03
2023-10-11T12:49:14.369Z,38.40
2023-10-11T12:51:46.066Z,37.13
2023-10-11T12:54:17.812Z,37.59
2023-10-11T12:56:48.217Z,38.03
2023-10-11T12:59:21.182Z,36.63
2023-10-11T13:01:54.123Z,36.90
2023-10-11T13:04:32.136Z,37.17
2023-10-11T13:07:03.201Z,39.76
2023-10-11T13:09:37.381Z,40.72
2023-10-11T13:12:09.447Z,38.38
2023-10-11T13:14:39.799Z,38.99
2023-10-11T13:17:16.926Z,39.36
2023-10-11T13:19:52.522Z,39.86
2023-10-11T13:22:22.740Z,39.61
2023-10-11T13:24:52.971Z,39.73
2023-10-11T13:27:23.483Z,39.90
2023-10-11T13:29:54.198Z,40.45
2023-10-11T13:32:24.538Z,39.48
2023-10-11T13:34:57.394Z,35.88
2023-10-11T13:37:29.321Z,35.08
2023-10-11T13:40:06.968Z,34.36
2023-10-11T13:42:38.868Z,34.03
2023-10-11T13:45:15.937Z,34.34
2023-10-11T13:47:51.545Z,34.43
2023-10-11T13:50:36.561Z,34.55
2023-10-11T13:53:07.043Z,34.67
2023-10-11T13:55:42.535Z,35.10
2023-10-11T13:58:17.897Z,35.08
2023-10-11T14:01:03.262Z,35.58
2023-10-11T14:03:57.110Z,35.83
2023-10-11T14:06:44.021Z,36.30
2023-10-11T14:09:28.828Z,36.49
2023-10-11T14:11:59.313Z,36.62
2023-10-11T14:14:40.715Z,36.32
2023-10-11T14:17:17.092Z,36.56
2023-10-11T14:19:49.509Z,36.20
2023-10-11T14:22:23.222Z,37.16
2023-10-11T14:24:53.846Z,36.56
2023-10-11T14:27:24.138Z,36.08
2023-10-11T14:29:54.969Z,36.36
2023-10-11T14:32:25.361Z,36.75
2023-10-11T14:34:55.639Z,36.83
2023-10-11T14:37:30.896Z,36.72
2023-10-11T14:40:01.242Z,36.53
2023-10-11T14:42:32.494Z,36.63
2023-10-11T14:45:02.930Z,37.42
2023-10-11T14:47:33.648Z,37.01
2023-10-11T14:50:12.311Z,36.63
2023-10-11T14:52:47.829Z,36.98
2023-10-11T14:55:21.594Z,37.18
2023-10-11T14:57:52.603Z,37.62
2023-10-11T15:00:25.436Z,37.87
2023-10-11T15:02:58.323Z,37.65
2023-10-11T15:05:35.686Z,37.29
2023-10-11T15:08:09.166Z,37.90
2023-10-11T15:10:40.498Z,38.17
2023-10-11T15:13:12.819Z,37.55
2023-10-11T15:15:43.598Z,38.06
2023-10-11T15:18:14.178Z,38.23
2023-10-11T15:20:44.766Z,37.55
2023-10-11T15:23:19.180Z,38.63
2023-10-11T15:25:50.299Z,38.40
2023-10-11T15:28:21.494Z,38.29
2023-10-11T15:30:51.984Z,38.49
2023-10-11T15:33:23.243Z,38.49
2023-10-11T15:35:59.869Z,39.43
2023-10-11T15:38:34.105Z,39.46
2023-10-11T15:41:06.664Z,39.84
2023-10-11T15:43:40.876Z,39.60
2023-10-11T15:46:11.555Z,39.60
2023-10-11T15:48:42.829Z,39.62
2023-10-11T15:51:20.168Z,39.89
2023-10-11T15:53:54.378Z,40.45
2023-10-11T15:56:25.014Z,40.67
2023-10-11T15:58:55.352Z,40.76
2023-10-11T16:01:25.876Z,41.42
2023-10-11T16:03:57.387Z,42.14
2023-10-11T16:06:27.799Z,42.34
2023-10-11T16:09:01.297Z,43.16
2023-10-11T16:11:32.196Z,43.85
2023-10-11T16:14:02.486Z,44.60
2023-10-11T16:16:32.886Z,44.60
2023-10-11T16:19:03.148Z,45.67
2023-10-11T16:21:35.475Z,46.60
2023-10-11T16:24:10.671Z,47.17
2023-10-11T16:26:41.794Z,46.63
2023-10-11T16:29:12.219Z,47.12
2023-10-11T16:31:43.135Z,47.94
2023-10-11T16:34:14.606Z,48.40
2023-10-11T16:36:46.249Z,48.50
2023-10-11T16:39:34.849Z,49.92
2023-10-11T16:42:07.040Z,51.24
2023-10-11T16:44:40.242Z,51.65
2023-10-11T16:47:10.638Z,52.46
2023-10-11T16:49:42.130Z,55.00
2023-10-11T16:52:13.535Z,58.42
2023-10-11T16:54:47.059Z,59.41
2023-10-11T16:57:21.363Z,59.92
2023-10-11T16:59:53.091Z,61.82
2023-10-11T17:02:26.810Z,61.69
2023-10-11T17:04:57.432Z,63.01
2023-10-11T17:07:28.176Z,62.79
2023-10-11T17:10:01.237Z,63.15
2023-10-11T17:12:31.914Z,64.78
2023-10-11T17:15:02.135Z,65.55
2023-10-11T17:17:32.730Z,66.17
2023-10-11T17:20:03.093Z,67.45
2023-10-11T17:22:36.260Z,68.72
2023-10-11T17:25:10.345Z,70.62
2023-10-11T17:27:40.688Z,70.62
2023-10-11T17:30:14.808Z,70.90
2023-10-11T17:32:45.134Z,74.15
2023-10-11T17:35:18.164Z,74.75
2023-10-11T17:37:49.652Z,76.25
2023-10-11T17:40:28.599Z,77.45
2023-10-11T17:42:59.946Z,79.16
2023-10-11T17:45:30.903Z,80.35
2023-10-11T17:48:04.181Z,80.46
2023-10-11T17:50:35.407Z,82.80
2023-10-11T17:53:06.184Z,85.54
2023-10-11T17:55:43.711Z,86.63
2023-10-11T17:58:14.895Z,87.87
2023-10-11T18:00:46.586Z,88.67
2023-10-11T18:03:18.333Z,90.48
2023-10-11T18:05:50.066Z,92.05
2023-10-11T18:08:20.378Z,92.65
2023-10-11T18:10:53.310Z,91.77
2023-10-11T18:13:25.169Z,94.36
2023-10-11T18:15:55.751Z,93.40
2023-10-11T18:18:26.612Z,95.21
2023-10-11T18:20:57.044Z,95.67
2023-10-11T18:23:29.074Z,99.97
2023-10-11T18:26:02.011Z,100.00
2023-10-11T18:28:33.829Z,100.00
2023-10-11T18:31:12.661Z,100.00
2023-10-11T18:33:43.181Z,100.00
2023-10-11T18:36:13.614Z,100.00
2023-10-11T18:38:45.333Z,100.00
2023-10-11T18:41:18.199Z,100.00
2023-10-11T18:43:48.469Z,100.00
2023-10-11T18:46:18.814Z,100.00
2023-10-11T18:48:49.170Z,100.00
2023-10-11T18:51:20.983Z,100.00
2023-10-11T18:53:51.790Z,100.00
2023-10-11T18:56:25.725Z,100.00
2023-10-11T18:58:56.387Z,100.00
2023-10-11T19:01:28.073Z,100.00
2023-10-11T19:03:58.833Z,100.00
2023-10-11T19:06:29.737Z,100.00
2023-10-11T19:09:00.350Z,100.00
2023-10-11T19:11:35.627Z,100.00
2023-10-11T19:14:05.894Z,100.00
2023-10-11T19:16:36.653Z,100.00
2023-10-11T19:19:07.120Z,100.00
2023-10-11T19:21:37.615Z,100.00
2023-10-11T19:24:10.070Z,100.00
2023-10-11T19:26:43.083Z,100.00
2023-10-11T19:29:13.369Z,100.00
2023-10-11T19:31:43.775Z,100.00
2023-10-11T19:34:14.191Z,100.00
2023-10-11T19:36:44.752Z,100.00
2023-10-11T19:39:16.929Z,100.00
2023-10-11T19:41:49.809Z,100.00
2023-10-11T19:44:20.207Z,100.00
2023-10-11T19:46:50.568Z,100.00
2023-10-11T19:49:20.870Z,100.00
2023-10-11T19:51:52.090Z,100.00
2023-10-11T19:54:22.944Z,100.00
2023-10-11T19:56:55.832Z,100.00
2023-10-11T19:59:26.551Z,100.00
2023-10-11T20:01:57.138Z,100.00
2023-10-11T20:04:27.466Z,100.00
2023-10-11T20:06:58.653Z,100.00
2023-10-11T20:09:30.521Z,100.00
2023-10-11T20:12:03.371Z,100.00
2023-10-11T20:14:33.698Z,100.00
2023-10-11T20:17:07.112Z,100.00
2023-10-11T20:19:35.898Z,100.00
2023-10-11T20:22:06.319Z,100.00
2023-10-11T20:24:36.715Z,100.00
2023-10-11T20:27:10.808Z,100.00
2023-10-11T20:29:42.017Z,100.00
2023-10-11T20:32:13.379Z,100.00
2023-10-11T20:34:43.764Z,100.00
2023-10-11T20:37:14.232Z,100.00
2023-10-11T20:39:44.540Z,100.00
2023-10-11T20:42:17.694Z,100.00
2023-10-11T20:44:48.376Z,100.00
2023-10-11T20:47:18.667Z,100.00
2023-10-11T20:49:51.237Z,100.00
2023-10-11T20:52:21.594Z,100.00
2023-10-11T20:54:52.069Z,100.00
2023-10-11T20:57:24.967Z,100.00
2023-10-11T20:59:55.333Z,100.00
2023-10-11T21:02:28.852Z,100.00
2023-10-11T21:04:59.722Z,100.00
2023-10-11T21:07:30.158Z,100.00
2023-10-11T21:10:00.610Z,100.00
2023-10-11T21:12:33.546Z,100.00
2023-10-11T21:15:04.605Z,100.00
2023-10-11T21:17:35.313Z,100.00
2023-10-11T21:20:05.966Z,100.00
2023-10-11T21:22:36.246Z,100.00
2023-10-11T21:25:06.705Z,100.00
2023-10-11T21:27:39.642Z,100.00
2023-10-11T21:30:12.614Z,100.00
2023-10-11T21:32:43.433Z,100.00
2023-10-11T21:35:22.570Z,100.00
2023-10-11T21:37:53.227Z,100.00
2023-10-11T21:40:26.193Z,100.00
2023-10-11T21:43:01.309Z,100.00
2023-10-11T21:45:32.766Z,100.00
2023-10-11T21:48:07.763Z,100.00
2023-10-11T21:50:38.804Z,100.00
2023-10-11T21:53:09.775Z,100.00
2023-10-11T21:55:42.642Z,100.00
2023-10-11T21:58:16.650Z,100.00
2023-10-11T22:00:53.710Z,100.00
2023-10-11T22:03:24.728Z,100.00
2023-10-11T22:05:55.693Z,100.00
2023-10-11T22:08:27.647Z,100.00
2023-10-11T22:11:01.052Z,100.00
2023-10-11T22:13:36.003Z,100.00
2023-10-11T22:16:06.371Z,100.00
2023-10-11T22:18:36.670Z,100.00
2023-10-11T22:21:08.547Z,100.00
2023-10-11T22:23:38.786Z,100.00
2023-10-11T22:26:29.042Z,100.00
2023-10-11T22:31:53.562Z,100.00
2023-10-11T22:34:23.868Z,100.00
2023-10-11T22:36:54.184Z,100.00
2023-10-11T22:39:26.212Z,100.00
2023-10-11T22:41:56.880Z,100.00
2023-10-11T22:44:31.483Z,100.00
2023-10-11T22:47:02.761Z,100.00
2023-10-11T22:49:33.242Z,100.00
2023-10-11T22:52:03.492Z,100.00
2023-10-11T22:54:33.796Z,100.00
2023-10-11T22:57:04.046Z,100.00
2023-10-11T22:59:37.076Z,100.00
2023-10-11T23:02:18.280Z,100.00
2023-10-11T23:04:49.573Z,100.00
2023-10-11T23:07:19.893Z,100.00
2023-10-11T23:09:53.212Z,100.00
2023-10-11T23:12:26.120Z,100.00
2023-10-11T23:15:00.453Z,100.00
2023-10-11T23:17:30.908Z,100.00
2023-10-11T23:20:09.687Z,100.00
2023-10-11T23:22:40.659Z,100.00
2023-10-11T23:25:11.556Z,100.00
2023-10-11T23:27:45.787Z,100.00
2023-10-11T23:30:21.543Z,100.00
2023-10-11T23:33:08.757Z,100.00
2023-10-11T23:35:42.289Z,100.00
2023-10-11T23:38:30.008Z,100.00
2023-10-11T23:41:14.943Z,100.00
2023-10-11T23:43:48.139Z,100.00
2023-10-11T23:46:27.487Z,100.00
2023-10-11T23:49:08.280Z,100.00
2023-10-11T23:51:43.278Z,100.00
2023-10-11T23:54:15.075Z,100.00
2023-10-11T23:56:47.376Z,100.00
2023-10-11T23:59:31.925Z,100.00
